Mitilini, Greece
Current Conditions -  °F | °C
As of 10:50 PM on Saturday 22 Nov 2014 (Local Time) from LGMT Reporting Station
Few Clouds Few Clouds  
Wind Chill:   Ceiling: Unl
Heat Index:   Visibility: 6mi
Dew Point:   Wind: 3mph
Humidity: 76%   Direction: NA
Pressure: 30.24"   Gusts: NA
Location:  39.11°N, 26.55°E
Report Text: LGMT 221950Z VRB03KT 9999 FEW020 09/05 Q1024
Loading
Personal Weather Stations






























Interactive Weather Map New forecast layout! Learn more

10-Day Weather Forecast

Advertisements
Track Severe Weather on mobile